sensor_id;sensor_type;location;lat;lon;timestamp;P1;durP1;ratioP1;P2;durP2;ratioP2
43807;SDS011;29438;50.664;10.098;2023-08-31T00:01:08;7.78;;;4.63;;
43807;SDS011;29438;50.664;10.098;2023-08-31T00:03:34;9.43;;;5.15;;
43807;SDS011;29438;50.664;10.098;2023-08-31T00:06:03;9.32;;;5.18;;
43807;SDS011;29438;50.664;10.098;2023-08-31T00:08:29;9.13;;;5.28;;
43807;SDS011;29438;50.664;10.098;2023-08-31T00:10:59;12.23;;;6.50;;
43807;SDS011;29438;50.664;10.098;2023-08-31T00:13:25;11.65;;;6.25;;
43807;SDS011;29438;50.664;10.098;2023-08-31T00:15:53;11.73;;;6.40;;
43807;SDS011;29438;50.664;10.098;2023-08-31T00:18:21;11.70;;;6.82;;
43807;SDS011;29438;50.664;10.098;2023-08-31T00:20:47;12.13;;;6.88;;
43807;SDS011;29438;50.664;10.098;2023-08-31T00:23:12;13.10;;;7.18;;
43807;SDS011;29438;50.664;10.098;2023-08-31T00:25:38;13.85;;;6.82;;
43807;SDS011;29438;50.664;10.098;2023-08-31T00:28:03;12.15;;;6.85;;
43807;SDS011;29438;50.664;10.098;2023-08-31T00:30:29;14.52;;;7.78;;
43807;SDS011;29438;50.664;10.098;2023-08-31T00:32:58;12.63;;;7.05;;
43807;SDS011;29438;50.664;10.098;2023-08-31T00:35:27;13.32;;;7.07;;
43807;SDS011;29438;50.664;10.098;2023-08-31T00:37:53;14.40;;;7.18;;
43807;SDS011;29438;50.664;10.098;2023-08-31T00:40:23;14.02;;;7.63;;
43807;SDS011;29438;50.664;10.098;2023-08-31T00:42:49;13.75;;;7.78;;
43807;SDS011;29438;50.664;10.098;2023-08-31T00:45:14;14.45;;;8.52;;
43807;SDS011;29438;50.664;10.098;2023-08-31T00:47:40;14.23;;;7.82;;
43807;SDS011;29438;50.664;10.098;2023-08-31T00:50:06;13.55;;;7.72;;
43807;SDS011;29438;50.664;10.098;2023-08-31T00:52:33;13.43;;;7.47;;
43807;SDS011;29438;50.664;10.098;2023-08-31T00:54:59;13.98;;;7.45;;
43807;SDS011;29438;50.664;10.098;2023-08-31T00:57:27;14.10;;;7.57;;
43807;SDS011;29438;50.664;10.098;2023-08-31T00:59:53;12.55;;;7.05;;
43807;SDS011;29438;50.664;10.098;2023-08-31T01:02:22;13.00;;;7.78;;
43807;SDS011;29438;50.664;10.098;2023-08-31T01:05:11;16.17;;;7.95;;
43807;SDS011;29438;50.664;10.098;2023-08-31T01:12:52;15.25;;;7.88;;
43807;SDS011;29438;50.664;10.098;2023-08-31T01:15:22;13.75;;;7.90;;
43807;SDS011;29438;50.664;10.098;2023-08-31T01:17:52;14.13;;;7.72;;
43807;SDS011;29438;50.664;10.098;2023-08-31T01:20:28;13.43;;;7.80;;
43807;SDS011;29438;50.664;10.098;2023-08-31T01:23:06;14.02;;;8.15;;
43807;SDS011;29438;50.664;10.098;2023-08-31T01:25:38;11.88;;;6.85;;
43807;SDS011;29438;50.664;10.098;2023-08-31T01:28:05;14.18;;;7.97;;
43807;SDS011;29438;50.664;10.098;2023-08-31T01:30:31;14.90;;;7.82;;
43807;SDS011;29438;50.664;10.098;2023-08-31T01:32:57;14.05;;;7.18;;
43807;SDS011;29438;50.664;10.098;2023-08-31T01:35:23;13.60;;;7.38;;
43807;SDS011;29438;50.664;10.098;2023-08-31T01:37:54;15.13;;;7.68;;
43807;SDS011;29438;50.664;10.098;2023-08-31T01:40:26;14.45;;;7.20;;
43807;SDS011;29438;50.664;10.098;2023-08-31T01:43:00;14.63;;;7.40;;
43807;SDS011;29438;50.664;10.098;2023-08-31T01:45:27;13.80;;;7.88;;
43807;SDS011;29438;50.664;10.098;2023-08-31T01:47:53;14.57;;;8.30;;
43807;SDS011;29438;50.664;10.098;2023-08-31T01:50:21;13.98;;;7.93;;
43807;SDS011;29438;50.664;10.098;2023-08-31T01:52:46;13.57;;;7.65;;
43807;SDS011;29438;50.664;10.098;2023-08-31T01:55:12;16.65;;;8.75;;
43807;SDS011;29438;50.664;10.098;2023-08-31T01:57:40;14.75;;;8.18;;
43807;SDS011;29438;50.664;10.098;2023-08-31T02:00:06;15.00;;;7.97;;
43807;SDS011;29438;50.664;10.098;2023-08-31T02:02:34;15.45;;;8.95;;
43807;SDS011;29438;50.664;10.098;2023-08-31T02:05:00;13.52;;;8.60;;
43807;SDS011;29438;50.664;10.098;2023-08-31T02:07:27;14.02;;;8.18;;
43807;SDS011;29438;50.664;10.098;2023-08-31T02:09:53;15.00;;;8.05;;
43807;SDS011;29438;50.664;10.098;2023-08-31T02:12:18;14.77;;;8.48;;
43807;SDS011;29438;50.664;10.098;2023-08-31T02:14:44;14.23;;;7.72;;
43807;SDS011;29438;50.664;10.098;2023-08-31T02:17:09;16.13;;;8.50;;
43807;SDS011;29438;50.664;10.098;2023-08-31T02:19:35;17.77;;;8.65;;
43807;SDS011;29438;50.664;10.098;2023-08-31T02:22:00;15.45;;;8.23;;
43807;SDS011;29438;50.664;10.098;2023-08-31T02:24:26;16.88;;;8.77;;
43807;SDS011;29438;50.664;10.098;2023-08-31T02:26:51;15.70;;;8.73;;
43807;SDS011;29438;50.664;10.098;2023-08-31T02:29:17;17.38;;;8.93;;
43807;SDS011;29438;50.664;10.098;2023-08-31T02:31:42;16.75;;;8.80;;
43807;SDS011;29438;50.664;10.098;2023-08-31T02:34:10;16.88;;;8.90;;
43807;SDS011;29438;50.664;10.098;2023-08-31T02:36:36;19.15;;;9.35;;
43807;SDS011;29438;50.664;10.098;2023-08-31T02:39:01;17.70;;;9.65;;
43807;SDS011;29438;50.664;10.098;2023-08-31T02:41:28;17.15;;;9.45;;
43807;SDS011;29438;50.664;10.098;2023-08-31T02:43:54;17.15;;;9.27;;
43807;SDS011;29438;50.664;10.098;2023-08-31T02:46:19;18.15;;;9.32;;
43807;SDS011;29438;50.664;10.098;2023-08-31T02:48:45;16.08;;;9.27;;
43807;SDS011;29438;50.664;10.098;2023-08-31T02:51:11;18.33;;;9.57;;
43807;SDS011;29438;50.664;10.098;2023-08-31T02:53:36;17.05;;;9.65;;
43807;SDS011;29438;50.664;10.098;2023-08-31T02:56:02;17.30;;;9.23;;
43807;SDS011;29438;50.664;10.098;2023-08-31T02:58:28;18.48;;;10.27;;
43807;SDS011;29438;50.664;10.098;2023-08-31T03:00:54;19.10;;;10.00;;
43807;SDS011;29438;50.664;10.098;2023-08-31T03:03:20;16.10;;;9.13;;
43807;SDS011;29438;50.664;10.098;2023-08-31T03:05:46;18.98;;;9.48;;
43807;SDS011;29438;50.664;10.098;2023-08-31T03:08:12;22.33;;;10.05;;
43807;SDS011;29438;50.664;10.098;2023-08-31T03:10:38;19.73;;;10.38;;
43807;SDS011;29438;50.664;10.098;2023-08-31T03:13:04;18.83;;;10.10;;
43807;SDS011;29438;50.664;10.098;2023-08-31T03:15:31;22.75;;;10.73;;
43807;SDS011;29438;50.664;10.098;2023-08-31T03:17:58;22.50;;;10.25;;
43807;SDS011;29438;50.664;10.098;2023-08-31T03:20:24;18.98;;;9.23;;
43807;SDS011;29438;50.664;10.098;2023-08-31T03:22:49;20.05;;;10.15;;
43807;SDS011;29438;50.664;10.098;2023-08-31T03:25:15;22.85;;;10.73;;
43807;SDS011;29438;50.664;10.098;2023-08-31T03:27:41;21.52;;;10.73;;
43807;SDS011;29438;50.664;10.098;2023-08-31T03:30:07;21.33;;;10.63;;
43807;SDS011;29438;50.664;10.098;2023-08-31T03:32:33;22.30;;;10.80;;
43807;SDS011;29438;50.664;10.098;2023-08-31T03:34:58;22.10;;;10.77;;
43807;SDS011;29438;50.664;10.098;2023-08-31T03:37:24;22.50;;;10.32;;
43807;SDS011;29438;50.664;10.098;2023-08-31T03:39:49;20.55;;;10.75;;
43807;SDS011;29438;50.664;10.098;2023-08-31T03:42:15;23.90;;;10.35;;
43807;SDS011;29438;50.664;10.098;2023-08-31T03:44:41;21.50;;;10.50;;
43807;SDS011;29438;50.664;10.098;2023-08-31T03:47:07;22.42;;;10.90;;
43807;SDS011;29438;50.664;10.098;2023-08-31T03:49:32;23.58;;;11.65;;
43807;SDS011;29438;50.664;10.098;2023-08-31T03:51:58;20.38;;;10.43;;
43807;SDS011;29438;50.664;10.098;2023-08-31T03:54:24;23.20;;;11.07;;
43807;SDS011;29438;50.664;10.098;2023-08-31T03:56:49;22.23;;;11.88;;
43807;SDS011;29438;50.664;10.098;2023-08-31T03:59:15;23.52;;;10.90;;
43807;SDS011;29438;50.664;10.098;2023-08-31T04:01:41;25.27;;;11.70;;
43807;SDS011;29438;50.664;10.098;2023-08-31T04:04:07;25.60;;;10.93;;
43807;SDS011;29438;50.664;10.098;2023-08-31T04:06:33;27.00;;;11.48;;
43807;SDS011;29438;50.664;10.098;2023-08-31T04:08:59;21.30;;;11.43;;
43807;SDS011;29438;50.664;10.098;2023-08-31T04:11:24;26.73;;;12.18;;
43807;SDS011;29438;50.664;10.098;2023-08-31T04:13:50;26.45;;;12.30;;
43807;SDS011;29438;50.664;10.098;2023-08-31T04:16:16;25.23;;;11.90;;
43807;SDS011;29438;50.664;10.098;2023-08-31T04:18:42;24.70;;;11.68;;
43807;SDS011;29438;50.664;10.098;2023-08-31T04:21:08;23.95;;;11.95;;
43807;SDS011;29438;50.664;10.098;2023-08-31T04:23:33;24.83;;;11.75;;
43807;SDS011;29438;50.664;10.098;2023-08-31T04:25:59;25.63;;;12.20;;
43807;SDS011;29438;50.664;10.098;2023-08-31T04:28:25;23.75;;;12.00;;
43807;SDS011;29438;50.664;10.098;2023-08-31T04:30:50;23.40;;;11.85;;
43807;SDS011;29438;50.664;10.098;2023-08-31T04:33:17;25.70;;;12.07;;
43807;SDS011;29438;50.664;10.098;2023-08-31T04:35:43;22.02;;;12.35;;
43807;SDS011;29438;50.664;10.098;2023-08-31T04:38:09;27.23;;;12.27;;
43807;SDS011;29438;50.664;10.098;2023-08-31T04:40:35;24.73;;;11.73;;
43807;SDS011;29438;50.664;10.098;2023-08-31T04:43:01;26.20;;;11.77;;
43807;SDS011;29438;50.664;10.098;2023-08-31T04:45:28;25.60;;;12.52;;
43807;SDS011;29438;50.664;10.098;2023-08-31T04:47:53;25.00;;;12.18;;
43807;SDS011;29438;50.664;10.098;2023-08-31T04:50:19;26.25;;;12.00;;
43807;SDS011;29438;50.664;10.098;2023-08-31T04:52:44;23.23;;;11.27;;
43807;SDS011;29438;50.664;10.098;2023-08-31T04:55:12;23.50;;;11.55;;
43807;SDS011;29438;50.664;10.098;2023-08-31T04:57:38;23.30;;;11.82;;
43807;SDS011;29438;50.664;10.098;2023-08-31T05:00:04;23.95;;;12.48;;
43807;SDS011;29438;50.664;10.098;2023-08-31T05:02:30;26.33;;;13.00;;
43807;SDS011;29438;50.664;10.098;2023-08-31T05:04:55;25.33;;;11.43;;
43807;SDS011;29438;50.664;10.098;2023-08-31T05:07:21;23.67;;;11.95;;
43807;SDS011;29438;50.664;10.098;2023-08-31T05:09:47;20.92;;;11.23;;
43807;SDS011;29438;50.664;10.098;2023-08-31T05:12:12;19.50;;;11.13;;
43807;SDS011;29438;50.664;10.098;2023-08-31T05:14:38;21.88;;;11.20;;
43807;SDS011;29438;50.664;10.098;2023-08-31T05:17:04;19.45;;;10.55;;
43807;SDS011;29438;50.664;10.098;2023-08-31T05:19:30;21.38;;;10.55;;
43807;SDS011;29438;50.664;10.098;2023-08-31T05:21:56;20.75;;;10.18;;
43807;SDS011;29438;50.664;10.098;2023-08-31T05:24:21;22.23;;;9.88;;
43807;SDS011;29438;50.664;10.098;2023-08-31T05:26:48;17.58;;;10.20;;
43807;SDS011;29438;50.664;10.098;2023-08-31T05:29:14;18.02;;;10.25;;
43807;SDS011;29438;50.664;10.098;2023-08-31T05:31:39;18.30;;;9.75;;
43807;SDS011;29438;50.664;10.098;2023-08-31T05:34:05;18.25;;;9.88;;
43807;SDS011;29438;50.664;10.098;2023-08-31T05:36:30;16.27;;;9.05;;
43807;SDS011;29438;50.664;10.098;2023-08-31T05:38:56;18.88;;;9.25;;
43807;SDS011;29438;50.664;10.098;2023-08-31T05:41:22;15.43;;;8.60;;
43807;SDS011;29438;50.664;10.098;2023-08-31T05:43:47;15.68;;;9.05;;
43807;SDS011;29438;50.664;10.098;2023-08-31T05:46:13;17.05;;;8.20;;
43807;SDS011;29438;50.664;10.098;2023-08-31T05:48:39;16.67;;;7.95;;
43807;SDS011;29438;50.664;10.098;2023-08-31T05:51:04;13.35;;;7.45;;
43807;SDS011;29438;50.664;10.098;2023-08-31T05:53:30;14.43;;;8.27;;
43807;SDS011;29438;50.664;10.098;2023-08-31T05:55:56;13.70;;;7.78;;
43807;SDS011;29438;50.664;10.098;2023-08-31T05:58:29;15.27;;;7.53;;
43807;SDS011;29438;50.664;10.098;2023-08-31T06:00:56;14.32;;;7.53;;
43807;SDS011;29438;50.664;10.098;2023-08-31T06:03:21;12.63;;;7.07;;
43807;SDS011;29438;50.664;10.098;2023-08-31T06:05:47;12.75;;;7.25;;
43807;SDS011;29438;50.664;10.098;2023-08-31T06:08:13;14.07;;;7.05;;
43807;SDS011;29438;50.664;10.098;2023-08-31T06:10:38;13.90;;;6.70;;
43807;SDS011;29438;50.664;10.098;2023-08-31T06:13:04;13.43;;;7.10;;
43807;SDS011;29438;50.664;10.098;2023-08-31T06:15:30;11.98;;;6.47;;
43807;SDS011;29438;50.664;10.098;2023-08-31T06:17:55;13.20;;;6.90;;
43807;SDS011;29438;50.664;10.098;2023-08-31T06:20:21;13.90;;;7.03;;
43807;SDS011;29438;50.664;10.098;2023-08-31T06:22:47;10.57;;;6.45;;
43807;SDS011;29438;50.664;10.098;2023-08-31T06:25:13;12.80;;;6.60;;
43807;SDS011;29438;50.664;10.098;2023-08-31T06:27:41;10.02;;;5.78;;
43807;SDS011;29438;50.664;10.098;2023-08-31T06:30:08;11.45;;;5.35;;
43807;SDS011;29438;50.664;10.098;2023-08-31T06:32:37;10.68;;;5.60;;
43807;SDS011;29438;50.664;10.098;2023-08-31T06:35:02;9.50;;;4.78;;
43807;SDS011;29438;50.664;10.098;2023-08-31T06:37:28;8.68;;;4.95;;
43807;SDS011;29438;50.664;10.098;2023-08-31T06:39:54;8.70;;;4.53;;
43807;SDS011;29438;50.664;10.098;2023-08-31T06:42:19;9.20;;;4.97;;
43807;SDS011;29438;50.664;10.098;2023-08-31T06:44:45;8.45;;;4.80;;
43807;SDS011;29438;50.664;10.098;2023-08-31T06:47:11;10.13;;;4.93;;
43807;SDS011;29438;50.664;10.098;2023-08-31T06:49:38;9.40;;;5.30;;
43807;SDS011;29438;50.664;10.098;2023-08-31T06:52:04;10.35;;;5.20;;
43807;SDS011;29438;50.664;10.098;2023-08-31T06:54:32;9.60;;;5.20;;
43807;SDS011;29438;50.664;10.098;2023-08-31T06:56:58;8.15;;;4.88;;
43807;SDS011;29438;50.664;10.098;2023-08-31T06:59:24;9.52;;;5.35;;
43807;SDS011;29438;50.664;10.098;2023-08-31T07:01:49;11.00;;;5.18;;
43807;SDS011;29438;50.664;10.098;2023-08-31T07:04:15;9.10;;;4.97;;
43807;SDS011;29438;50.664;10.098;2023-08-31T07:06:40;10.55;;;4.95;;
43807;SDS011;29438;50.664;10.098;2023-08-31T07:09:06;9.60;;;4.97;;
43807;SDS011;29438;50.664;10.098;2023-08-31T07:11:33;9.57;;;5.10;;
43807;SDS011;29438;50.664;10.098;2023-08-31T07:13:59;9.00;;;4.97;;
43807;SDS011;29438;50.664;10.098;2023-08-31T07:16:24;8.98;;;5.13;;
43807;SDS011;29438;50.664;10.098;2023-08-31T07:18:51;8.80;;;4.20;;
43807;SDS011;29438;50.664;10.098;2023-08-31T07:21:16;8.15;;;4.68;;
43807;SDS011;29438;50.664;10.098;2023-08-31T07:23:42;8.63;;;4.47;;
43807;SDS011;29438;50.664;10.098;2023-08-31T07:26:07;8.38;;;4.40;;
43807;SDS011;29438;50.664;10.098;2023-08-31T07:28:33;8.98;;;4.00;;
43807;SDS011;29438;50.664;10.098;2023-08-31T07:33:28;7.55;;;3.53;;
43807;SDS011;29438;50.664;10.098;2023-08-31T07:35:56;5.88;;;3.45;;
43807;SDS011;29438;50.664;10.098;2023-08-31T07:38:22;6.60;;;3.05;;
43807;SDS011;29438;50.664;10.098;2023-08-31T07:40:47;5.35;;;3.10;;
43807;SDS011;29438;50.664;10.098;2023-08-31T07:43:13;6.53;;;2.97;;
43807;SDS011;29438;50.664;10.098;2023-08-31T07:45:39;6.05;;;2.90;;
43807;SDS011;29438;50.664;10.098;2023-08-31T07:48:04;6.10;;;3.35;;
43807;SDS011;29438;50.664;10.098;2023-08-31T07:50:31;6.45;;;3.08;;
43807;SDS011;29438;50.664;10.098;2023-08-31T07:52:57;4.95;;;3.15;;
43807;SDS011;29438;50.664;10.098;2023-08-31T07:55:23;4.45;;;2.75;;
43807;SDS011;29438;50.664;10.098;2023-08-31T07:57:48;5.25;;;2.63;;
43807;SDS011;29438;50.664;10.098;2023-08-31T08:00:14;4.20;;;2.42;;
43807;SDS011;29438;50.664;10.098;2023-08-31T08:02:40;4.07;;;2.10;;
43807;SDS011;29438;50.664;10.098;2023-08-31T08:05:05;4.13;;;1.95;;
43807;SDS011;29438;50.664;10.098;2023-08-31T08:07:31;3.72;;;1.80;;
43807;SDS011;29438;50.664;10.098;2023-08-31T08:09:57;4.05;;;1.73;;
43807;SDS011;29438;50.664;10.098;2023-08-31T08:12:24;3.90;;;1.60;;
43807;SDS011;29438;50.664;10.098;2023-08-31T08:14:50;3.83;;;1.52;;
43807;SDS011;29438;50.664;10.098;2023-08-31T08:17:16;3.25;;;1.63;;
43807;SDS011;29438;50.664;10.098;2023-08-31T08:19:41;4.25;;;1.83;;
43807;SDS011;29438;50.664;10.098;2023-08-31T08:22:07;3.22;;;1.73;;
43807;SDS011;29438;50.664;10.098;2023-08-31T08:24:32;4.60;;;1.90;;
43807;SDS011;29438;50.664;10.098;2023-08-31T08:26:58;3.45;;;1.83;;
43807;SDS011;29438;50.664;10.098;2023-08-31T08:29:24;3.13;;;1.67;;
43807;SDS011;29438;50.664;10.098;2023-08-31T08:31:51;3.58;;;1.70;;
43807;SDS011;29438;50.664;10.098;2023-08-31T08:34:16;4.15;;;1.88;;
43807;SDS011;29438;50.664;10.098;2023-08-31T08:36:42;4.18;;;2.17;;
43807;SDS011;29438;50.664;10.098;2023-08-31T08:39:07;3.35;;;1.70;;
43807;SDS011;29438;50.664;10.098;2023-08-31T08:41:33;3.67;;;1.48;;
43807;SDS011;29438;50.664;10.098;2023-08-31T08:44:01;2.80;;;1.50;;
43807;SDS011;29438;50.664;10.098;2023-08-31T08:46:29;2.92;;;1.70;;
43807;SDS011;29438;50.664;10.098;2023-08-31T08:48:57;2.95;;;1.38;;
43807;SDS011;29438;50.664;10.098;2023-08-31T08:51:26;2.92;;;1.50;;
43807;SDS011;29438;50.664;10.098;2023-08-31T08:53:52;2.67;;;1.30;;
43807;SDS011;29438;50.664;10.098;2023-08-31T08:56:19;2.15;;;1.33;;
43807;SDS011;29438;50.664;10.098;2023-08-31T08:58:44;3.65;;;1.60;;
43807;SDS011;29438;50.664;10.098;2023-08-31T09:01:10;2.30;;;1.38;;
43807;SDS011;29438;50.664;10.098;2023-08-31T09:03:36;3.63;;;1.58;;
43807;SDS011;29438;50.664;10.098;2023-08-31T09:06:01;4.15;;;1.48;;
43807;SDS011;29438;50.664;10.098;2023-08-31T09:08:29;2.30;;;1.27;;
43807;SDS011;29438;50.664;10.098;2023-08-31T09:10:56;2.05;;;1.15;;
43807;SDS011;29438;50.664;10.098;2023-08-31T09:13:28;3.92;;;1.20;;
43807;SDS011;29438;50.664;10.098;2023-08-31T09:15:55;3.75;;;1.17;;
43807;SDS011;29438;50.664;10.098;2023-08-31T09:18:28;5.07;;;1.27;;
43807;SDS011;29438;50.664;10.098;2023-08-31T09:20:55;3.33;;;1.10;;
43807;SDS011;29438;50.664;10.098;2023-08-31T09:23:22;2.50;;;1.40;;
43807;SDS011;29438;50.664;10.098;2023-08-31T09:25:52;4.03;;;1.58;;
43807;SDS011;29438;50.664;10.098;2023-08-31T09:28:19;2.88;;;1.25;;
43807;SDS011;29438;50.664;10.098;2023-08-31T09:30:46;3.03;;;1.30;;
43807;SDS011;29438;50.664;10.098;2023-08-31T09:33:13;6.07;;;1.60;;
43807;SDS011;29438;50.664;10.098;2023-08-31T09:35:51;3.20;;;1.40;;
43807;SDS011;29438;50.664;10.098;2023-08-31T09:38:18;2.70;;;1.50;;
43807;SDS011;29438;50.664;10.098;2023-08-31T09:40:44;3.03;;;1.50;;
43807;SDS011;29438;50.664;10.098;2023-08-31T09:43:10;3.40;;;1.52;;
43807;SDS011;29438;50.664;10.098;2023-08-31T09:45:35;3.38;;;1.40;;
43807;SDS011;29438;50.664;10.098;2023-08-31T09:48:03;3.42;;;1.52;;
43807;SDS011;29438;50.664;10.098;2023-08-31T09:50:32;2.88;;;1.23;;
43807;SDS011;29438;50.664;10.098;2023-08-31T09:53:03;2.25;;;1.02;;
43807;SDS011;29438;50.664;10.098;2023-08-31T09:55:30;2.50;;;1.30;;
43807;SDS011;29438;50.664;10.098;2023-08-31T09:57:57;2.67;;;1.08;;
43807;SDS011;29438;50.664;10.098;2023-08-31T10:00:28;2.28;;;1.08;;
43807;SDS011;29438;50.664;10.098;2023-08-31T10:03:00;2.20;;;1.23;;
43807;SDS011;29438;50.664;10.098;2023-08-31T10:05:28;2.42;;;1.10;;
43807;SDS011;29438;50.664;10.098;2023-08-31T10:07:54;2.10;;;0.90;;
43807;SDS011;29438;50.664;10.098;2023-08-31T10:10:19;3.08;;;1.20;;
43807;SDS011;29438;50.664;10.098;2023-08-31T10:12:50;2.03;;;0.77;;
43807;SDS011;29438;50.664;10.098;2023-08-31T10:15:17;1.90;;;0.70;;
43807;SDS011;29438;50.664;10.098;2023-08-31T10:17:43;2.42;;;0.93;;
43807;SDS011;29438;50.664;10.098;2023-08-31T10:20:14;3.00;;;0.70;;
43807;SDS011;29438;50.664;10.098;2023-08-31T10:22:41;2.45;;;0.73;;
43807;SDS011;29438;50.664;10.098;2023-08-31T10:25:07;2.78;;;0.80;;
43807;SDS011;29438;50.664;10.098;2023-08-31T10:27:37;2.30;;;0.70;;
43807;SDS011;29438;50.664;10.098;2023-08-31T10:30:40;1.55;;;0.43;;
43807;SDS011;29438;50.664;10.098;2023-08-31T10:33:19;1.02;;;0.40;;
43807;SDS011;29438;50.664;10.098;2023-08-31T10:35:50;2.60;;;0.90;;
43807;SDS011;29438;50.664;10.098;2023-08-31T10:38:22;2.05;;;0.68;;
43807;SDS011;29438;50.664;10.098;2023-08-31T10:46:19;3.00;;;1.00;;
43807;SDS011;29438;50.664;10.098;2023-08-31T10:49:00;3.60;;;0.73;;
43807;SDS011;29438;50.664;10.098;2023-08-31T10:51:46;3.00;;;0.60;;
43807;SDS011;29438;50.664;10.098;2023-08-31T10:54:20;3.22;;;0.90;;
43807;SDS011;29438;50.664;10.098;2023-08-31T10:59:41;2.45;;;1.10;;
43807;SDS011;29438;50.664;10.098;2023-08-31T11:03:02;4.15;;;1.33;;
43807;SDS011;29438;50.664;10.098;2023-08-31T11:05:07;2.30;;;0.98;;
43807;SDS011;29438;50.664;10.098;2023-08-31T11:07:34;2.75;;;1.20;;
43807;SDS011;29438;50.664;10.098;2023-08-31T11:12:34;3.10;;;1.30;;
43807;SDS011;29438;50.664;10.098;2023-08-31T11:14:59;3.53;;;1.33;;
43807;SDS011;29438;50.664;10.098;2023-08-31T11:17:25;2.30;;;1.23;;
43807;SDS011;29438;50.664;10.098;2023-08-31T11:19:51;2.45;;;1.00;;
43807;SDS011;29438;50.664;10.098;2023-08-31T11:22:17;3.42;;;1.40;;
43807;SDS011;29438;50.664;10.098;2023-08-31T11:24:43;5.22;;;1.45;;
43807;SDS011;29438;50.664;10.098;2023-08-31T11:27:09;3.38;;;1.13;;
43807;SDS011;29438;50.664;10.098;2023-08-31T11:29:44;2.50;;;1.10;;
43807;SDS011;29438;50.664;10.098;2023-08-31T11:32:10;5.32;;;1.30;;
43807;SDS011;29438;50.664;10.098;2023-08-31T11:34:39;3.70;;;1.10;;
43807;SDS011;29438;50.664;10.098;2023-08-31T11:37:07;2.55;;;1.10;;
43807;SDS011;29438;50.664;10.098;2023-08-31T11:39:33;3.63;;;1.10;;
43807;SDS011;29438;50.664;10.098;2023-08-31T11:41:59;2.08;;;1.10;;
43807;SDS011;29438;50.664;10.098;2023-08-31T11:44:24;3.58;;;1.17;;
43807;SDS011;29438;50.664;10.098;2023-08-31T11:46:50;2.50;;;1.13;;
43807;SDS011;29438;50.664;10.098;2023-08-31T11:49:20;3.85;;;1.10;;
43807;SDS011;29438;50.664;10.098;2023-08-31T11:51:47;3.25;;;1.38;;
43807;SDS011;29438;50.664;10.098;2023-08-31T11:54:16;5.25;;;1.52;;
43807;SDS011;29438;50.664;10.098;2023-08-31T11:56:42;2.33;;;1.27;;
43807;SDS011;29438;50.664;10.098;2023-08-31T11:59:16;4.00;;;1.45;;
43807;SDS011;29438;50.664;10.098;2023-08-31T12:01:44;2.28;;;1.00;;
43807;SDS011;29438;50.664;10.098;2023-08-31T12:04:13;4.13;;;1.48;;
43807;SDS011;29438;50.664;10.098;2023-08-31T12:06:39;4.53;;;1.70;;
43807;SDS011;29438;50.664;10.098;2023-08-31T12:09:07;3.35;;;1.38;;
43807;SDS011;29438;50.664;10.098;2023-08-31T12:11:33;3.00;;;1.10;;
43807;SDS011;29438;50.664;10.098;2023-08-31T12:13:59;1.88;;;0.90;;
43807;SDS011;29438;50.664;10.098;2023-08-31T12:16:31;4.53;;;1.15;;
43807;SDS011;29438;50.664;10.098;2023-08-31T12:19:04;2.45;;;1.13;;
43807;SDS011;29438;50.664;10.098;2023-08-31T12:21:33;2.20;;;0.93;;
43807;SDS011;29438;50.664;10.098;2023-08-31T12:23:59;2.47;;;0.90;;
43807;SDS011;29438;50.664;10.098;2023-08-31T12:26:25;3.05;;;1.00;;
43807;SDS011;29438;50.664;10.098;2023-08-31T12:28:51;5.25;;;0.90;;
43807;SDS011;29438;50.664;10.098;2023-08-31T12:31:16;2.85;;;1.02;;
43807;SDS011;29438;50.664;10.098;2023-08-31T12:33:42;2.35;;;0.80;;
43807;SDS011;29438;50.664;10.098;2023-08-31T12:36:08;2.35;;;0.68;;
43807;SDS011;29438;50.664;10.098;2023-08-31T12:38:33;3.47;;;0.88;;
43807;SDS011;29438;50.664;10.098;2023-08-31T12:40:59;2.20;;;1.10;;
43807;SDS011;29438;50.664;10.098;2023-08-31T12:43:26;2.63;;;1.10;;
43807;SDS011;29438;50.664;10.098;2023-08-31T12:45:53;2.83;;;1.25;;
43807;SDS011;29438;50.664;10.098;2023-08-31T12:48:19;2.05;;;1.00;;
43807;SDS011;29438;50.664;10.098;2023-08-31T12:50:45;3.10;;;1.10;;
43807;SDS011;29438;50.664;10.098;2023-08-31T12:53:10;3.38;;;1.02;;
43807;SDS011;29438;50.664;10.098;2023-08-31T12:55:36;2.63;;;1.10;;
43807;SDS011;29438;50.664;10.098;2023-08-31T12:58:01;2.30;;;0.98;;
43807;SDS011;29438;50.664;10.098;2023-08-31T13:00:27;4.55;;;1.05;;
43807;SDS011;29438;50.664;10.098;2023-08-31T13:02:53;3.05;;;0.98;;
43807;SDS011;29438;50.664;10.098;2023-08-31T13:05:19;3.80;;;0.90;;
43807;SDS011;29438;50.664;10.098;2023-08-31T13:07:45;3.50;;;0.95;;
43807;SDS011;29438;50.664;10.098;2023-08-31T13:10:11;2.58;;;1.10;;
43807;SDS011;29438;50.664;10.098;2023-08-31T13:12:36;2.33;;;0.93;;
43807;SDS011;29438;50.664;10.098;2023-08-31T13:15:02;2.78;;;1.00;;
43807;SDS011;29438;50.664;10.098;2023-08-31T13:17:28;2.50;;;0.90;;
43807;SDS011;29438;50.664;10.098;2023-08-31T13:19:54;2.47;;;0.70;;
43807;SDS011;29438;50.664;10.098;2023-08-31T13:22:21;2.85;;;0.70;;
43807;SDS011;29438;50.664;10.098;2023-08-31T13:24:46;3.40;;;0.70;;
43807;SDS011;29438;50.664;10.098;2023-08-31T13:27:12;2.65;;;0.70;;
43807;SDS011;29438;50.664;10.098;2023-08-31T13:29:41;2.05;;;0.70;;
43807;SDS011;29438;50.664;10.098;2023-08-31T13:32:07;2.70;;;0.70;;
43807;SDS011;29438;50.664;10.098;2023-08-31T13:34:33;3.67;;;0.80;;
43807;SDS011;29438;50.664;10.098;2023-08-31T13:36:59;3.88;;;0.73;;
43807;SDS011;29438;50.664;10.098;2023-08-31T13:39:25;1.65;;;0.57;;
43807;SDS011;29438;50.664;10.098;2023-08-31T13:41:51;3.47;;;0.70;;
43807;SDS011;29438;50.664;10.098;2023-08-31T13:44:18;1.85;;;0.60;;
43807;SDS011;29438;50.664;10.098;2023-08-31T13:46:45;3.50;;;0.73;;
43807;SDS011;29438;50.664;10.098;2023-08-31T13:49:10;2.28;;;0.60;;
43807;SDS011;29438;50.664;10.098;2023-08-31T13:51:36;2.30;;;0.55;;
43807;SDS011;29438;50.664;10.098;2023-08-31T13:54:02;1.85;;;0.82;;
43807;SDS011;29438;50.664;10.098;2023-08-31T13:56:31;3.35;;;0.80;;
43807;SDS011;29438;50.664;10.098;2023-08-31T13:58:58;2.13;;;0.55;;
43807;SDS011;29438;50.664;10.098;2023-08-31T14:01:24;2.38;;;0.73;;
43807;SDS011;29438;50.664;10.098;2023-08-31T14:03:50;2.83;;;0.70;;
43807;SDS011;29438;50.664;10.098;2023-08-31T14:06:15;2.47;;;0.95;;
43807;SDS011;29438;50.664;10.098;2023-08-31T14:08:41;2.83;;;0.98;;
43807;SDS011;29438;50.664;10.098;2023-08-31T14:11:06;3.55;;;0.90;;
43807;SDS011;29438;50.664;10.098;2023-08-31T14:13:32;2.92;;;1.00;;
43807;SDS011;29438;50.664;10.098;2023-08-31T14:15:59;3.10;;;0.80;;
43807;SDS011;29438;50.664;10.098;2023-08-31T14:18:26;2.85;;;0.90;;
43807;SDS011;29438;50.664;10.098;2023-08-31T14:20:53;2.75;;;0.90;;
43807;SDS011;29438;50.664;10.098;2023-08-31T14:23:19;2.95;;;0.85;;
43807;SDS011;29438;50.664;10.098;2023-08-31T14:25:44;3.22;;;0.68;;
43807;SDS011;29438;50.664;10.098;2023-08-31T14:28:10;3.33;;;1.10;;
43807;SDS011;29438;50.664;10.098;2023-08-31T14:30:36;2.58;;;1.00;;
43807;SDS011;29438;50.664;10.098;2023-08-31T14:33:02;4.63;;;1.20;;
43807;SDS011;29438;50.664;10.098;2023-08-31T14:35:28;2.45;;;0.80;;
43807;SDS011;29438;50.664;10.098;2023-08-31T14:37:54;1.95;;;0.90;;
43807;SDS011;29438;50.664;10.098;2023-08-31T14:40:19;3.78;;;0.90;;
43807;SDS011;29438;50.664;10.098;2023-08-31T14:42:45;2.60;;;0.80;;